sensor_id;sensor_type;location;lat;lon;timestamp;P1;durP1;ratioP1;P2;durP2;ratioP2
7759;SDS011;3924;48.830;9.262;2023-02-28T00:00:35;2.00;;;1.87;;
7759;SDS011;3924;48.830;9.262;2023-02-28T00:03:02;2.23;;;1.77;;
7759;SDS011;3924;48.830;9.262;2023-02-28T00:05:29;2.67;;;1.87;;
7759;SDS011;3924;48.830;9.262;2023-02-28T00:07:56;1.93;;;1.83;;
7759;SDS011;3924;48.830;9.262;2023-02-28T00:10:24;1.80;;;1.70;;
7759;SDS011;3924;48.830;9.262;2023-02-28T00:12:53;1.70;;;1.60;;
7759;SDS011;3924;48.830;9.262;2023-02-28T00:15:23;2.23;;;2.10;;
7759;SDS011;3924;48.830;9.262;2023-02-28T00:17:50;2.00;;;1.90;;
7759;SDS011;3924;48.830;9.262;2023-02-28T00:20:17;1.80;;;1.70;;
7759;SDS011;3924;48.830;9.262;2023-02-28T00:22:45;1.70;;;1.60;;
7759;SDS011;3924;48.830;9.262;2023-02-28T00:25:15;1.87;;;1.73;;
7759;SDS011;3924;48.830;9.262;2023-02-28T00:27:44;4.10;;;2.13;;
7759;SDS011;3924;48.830;9.262;2023-02-28T00:30:12;2.63;;;1.90;;
7759;SDS011;3924;48.830;9.262;2023-02-28T00:32:41;2.90;;;2.43;;
7759;SDS011;3924;48.830;9.262;2023-02-28T00:35:07;2.53;;;1.97;;
7759;SDS011;3924;48.830;9.262;2023-02-28T00:37:35;2.03;;;1.93;;
7759;SDS011;3924;48.830;9.262;2023-02-28T00:40:03;2.00;;;1.80;;
7759;SDS011;3924;48.830;9.262;2023-02-28T00:42:33;2.20;;;2.03;;
7759;SDS011;3924;48.830;9.262;2023-02-28T00:45:00;2.63;;;1.77;;
7759;SDS011;3924;48.830;9.262;2023-02-28T00:47:29;3.00;;;1.97;;
7759;SDS011;3924;48.830;9.262;2023-02-28T00:49:57;1.70;;;1.60;;
7759;SDS011;3924;48.830;9.262;2023-02-28T00:52:23;3.67;;;2.07;;
7759;SDS011;3924;48.830;9.262;2023-02-28T00:54:50;3.73;;;2.40;;
7759;SDS011;3924;48.830;9.262;2023-02-28T00:57:17;3.07;;;1.63;;
7759;SDS011;3924;48.830;9.262;2023-02-28T00:59:44;2.10;;;1.70;;
7759;SDS011;3924;48.830;9.262;2023-02-28T01:02:10;2.03;;;1.70;;
7759;SDS011;3924;48.830;9.262;2023-02-28T01:04:36;3.13;;;1.80;;
7759;SDS011;3924;48.830;9.262;2023-02-28T01:07:03;2.33;;;2.13;;
7759;SDS011;3924;48.830;9.262;2023-02-28T01:09:30;3.10;;;2.00;;
7759;SDS011;3924;48.830;9.262;2023-02-28T01:11:56;2.80;;;2.07;;
7759;SDS011;3924;48.830;9.262;2023-02-28T01:14:23;2.07;;;1.87;;
7759;SDS011;3924;48.830;9.262;2023-02-28T01:16:49;3.07;;;2.00;;
7759;SDS011;3924;48.830;9.262;2023-02-28T01:19:17;3.47;;;2.27;;
7759;SDS011;3924;48.830;9.262;2023-02-28T01:21:44;1.97;;;1.80;;
7759;SDS011;3924;48.830;9.262;2023-02-28T01:24:10;2.00;;;1.90;;
7759;SDS011;3924;48.830;9.262;2023-02-28T01:26:36;2.50;;;1.80;;
7759;SDS011;3924;48.830;9.262;2023-02-28T01:29:03;2.63;;;2.20;;
7759;SDS011;3924;48.830;9.262;2023-02-28T01:31:29;2.40;;;2.17;;
7759;SDS011;3924;48.830;9.262;2023-02-28T01:33:56;4.17;;;2.53;;
7759;SDS011;3924;48.830;9.262;2023-02-28T01:36:23;2.67;;;2.43;;
7759;SDS011;3924;48.830;9.262;2023-02-28T01:38:51;2.13;;;1.80;;
7759;SDS011;3924;48.830;9.262;2023-02-28T01:41:22;1.97;;;1.87;;
7759;SDS011;3924;48.830;9.262;2023-02-28T01:43:54;2.67;;;2.47;;
7759;SDS011;3924;48.830;9.262;2023-02-28T01:46:25;3.23;;;2.10;;
7759;SDS011;3924;48.830;9.262;2023-02-28T01:51:30;3.10;;;2.17;;
7759;SDS011;3924;48.830;9.262;2023-02-28T01:54:09;2.40;;;2.20;;
7759;SDS011;3924;48.830;9.262;2023-02-28T01:56:41;2.40;;;2.20;;
7759;SDS011;3924;48.830;9.262;2023-02-28T01:59:13;3.13;;;2.23;;
7759;SDS011;3924;48.830;9.262;2023-02-28T02:01:46;2.37;;;2.17;;
7759;SDS011;3924;48.830;9.262;2023-02-28T02:04:13;2.80;;;2.00;;
7759;SDS011;3924;48.830;9.262;2023-02-28T02:06:41;2.27;;;2.03;;
7759;SDS011;3924;48.830;9.262;2023-02-28T02:09:10;3.63;;;2.03;;
7759;SDS011;3924;48.830;9.262;2023-02-28T02:11:39;2.57;;;2.37;;
7759;SDS011;3924;48.830;9.262;2023-02-28T02:19:53;2.53;;;2.33;;
7759;SDS011;3924;48.830;9.262;2023-02-28T02:25:45;3.23;;;2.60;;
7759;SDS011;3924;48.830;9.262;2023-02-28T02:36:38;3.13;;;2.43;;
7759;SDS011;3924;48.830;9.262;2023-02-28T02:39:24;2.87;;;2.50;;
7759;SDS011;3924;48.830;9.262;2023-02-28T02:42:03;3.37;;;2.73;;
7759;SDS011;3924;48.830;9.262;2023-02-28T02:44:42;3.17;;;2.87;;
7759;SDS011;3924;48.830;9.262;2023-02-28T02:47:15;3.10;;;2.63;;
7759;SDS011;3924;48.830;9.262;2023-02-28T02:49:47;4.40;;;2.53;;
7759;SDS011;3924;48.830;9.262;2023-02-28T02:52:18;2.57;;;2.20;;
7759;SDS011;3924;48.830;9.262;2023-02-28T02:54:48;3.00;;;2.67;;
7759;SDS011;3924;48.830;9.262;2023-02-28T02:57:29;6.03;;;3.37;;
7759;SDS011;3924;48.830;9.262;2023-02-28T03:00:03;4.90;;;3.77;;
7759;SDS011;3924;48.830;9.262;2023-02-28T03:02:31;3.10;;;2.80;;
7759;SDS011;3924;48.830;9.262;2023-02-28T03:05:01;4.47;;;2.70;;
7759;SDS011;3924;48.830;9.262;2023-02-28T03:07:32;2.83;;;2.63;;
7759;SDS011;3924;48.830;9.262;2023-02-28T03:09:59;6.83;;;3.60;;
7759;SDS011;3924;48.830;9.262;2023-02-28T03:12:41;3.43;;;3.13;;
7759;SDS011;3924;48.830;9.262;2023-02-28T03:15:38;3.90;;;2.60;;
7759;SDS011;3924;48.830;9.262;2023-02-28T03:18:32;3.40;;;3.10;;
7759;SDS011;3924;48.830;9.262;2023-02-28T03:21:14;2.73;;;2.53;;
7759;SDS011;3924;48.830;9.262;2023-02-28T03:26:19;3.63;;;2.67;;
7759;SDS011;3924;48.830;9.262;2023-02-28T03:31:37;4.47;;;2.83;;
7759;SDS011;3924;48.830;9.262;2023-02-28T03:34:12;3.77;;;3.03;;
7759;SDS011;3924;48.830;9.262;2023-02-28T03:36:47;3.67;;;3.03;;
7759;SDS011;3924;48.830;9.262;2023-02-28T03:39:19;2.80;;;2.60;;
7759;SDS011;3924;48.830;9.262;2023-02-28T03:41:54;2.87;;;2.13;;
7759;SDS011;3924;48.830;9.262;2023-02-28T03:44:28;3.63;;;2.77;;
7759;SDS011;3924;48.830;9.262;2023-02-28T03:47:02;3.77;;;2.90;;
7759;SDS011;3924;48.830;9.262;2023-02-28T03:49:36;3.43;;;2.43;;
7759;SDS011;3924;48.830;9.262;2023-02-28T03:52:11;4.20;;;2.77;;
7759;SDS011;3924;48.830;9.262;2023-02-28T03:54:41;3.93;;;3.33;;
7759;SDS011;3924;48.830;9.262;2023-02-28T03:57:13;3.70;;;2.80;;
7759;SDS011;3924;48.830;9.262;2023-02-28T03:59:49;3.33;;;3.03;;
7759;SDS011;3924;48.830;9.262;2023-02-28T04:02:22;2.63;;;2.43;;
7759;SDS011;3924;48.830;9.262;2023-02-28T04:04:49;3.50;;;2.70;;
7759;SDS011;3924;48.830;9.262;2023-02-28T04:07:17;5.63;;;2.70;;
7759;SDS011;3924;48.830;9.262;2023-02-28T04:09:44;3.83;;;3.10;;
7759;SDS011;3924;48.830;9.262;2023-02-28T04:12:10;3.93;;;2.73;;
7759;SDS011;3924;48.830;9.262;2023-02-28T04:14:37;3.20;;;2.97;;
7759;SDS011;3924;48.830;9.262;2023-02-28T04:17:03;3.97;;;3.27;;
7759;SDS011;3924;48.830;9.262;2023-02-28T04:19:30;4.50;;;3.17;;
7759;SDS011;3924;48.830;9.262;2023-02-28T04:21:56;3.20;;;2.90;;
7759;SDS011;3924;48.830;9.262;2023-02-28T04:24:24;5.93;;;3.57;;
7759;SDS011;3924;48.830;9.262;2023-02-28T04:26:53;4.23;;;3.37;;
7759;SDS011;3924;48.830;9.262;2023-02-28T04:29:23;6.50;;;3.17;;
7759;SDS011;3924;48.830;9.262;2023-02-28T04:31:54;4.33;;;3.20;;
7759;SDS011;3924;48.830;9.262;2023-02-28T04:34:27;2.90;;;2.60;;
7759;SDS011;3924;48.830;9.262;2023-02-28T04:36:56;3.33;;;2.83;;
7759;SDS011;3924;48.830;9.262;2023-02-28T04:39:37;3.37;;;2.67;;
7759;SDS011;3924;48.830;9.262;2023-02-28T04:42:05;2.87;;;2.63;;
7759;SDS011;3924;48.830;9.262;2023-02-28T04:44:31;4.43;;;2.97;;
7759;SDS011;3924;48.830;9.262;2023-02-28T04:46:58;3.13;;;2.83;;
7759;SDS011;3924;48.830;9.262;2023-02-28T04:49:24;3.37;;;2.53;;
7759;SDS011;3924;48.830;9.262;2023-02-28T04:51:51;3.43;;;2.93;;
7759;SDS011;3924;48.830;9.262;2023-02-28T04:54:19;3.37;;;3.07;;
7759;SDS011;3924;48.830;9.262;2023-02-28T04:56:45;4.17;;;3.03;;
7759;SDS011;3924;48.830;9.262;2023-02-28T04:59:12;5.83;;;2.57;;
7759;SDS011;3924;48.830;9.262;2023-02-28T05:01:38;4.03;;;3.27;;
7759;SDS011;3924;48.830;9.262;2023-02-28T05:04:05;3.40;;;2.60;;
7759;SDS011;3924;48.830;9.262;2023-02-28T05:06:32;3.97;;;3.10;;
7759;SDS011;3924;48.830;9.262;2023-02-28T05:08:59;6.83;;;3.67;;
7759;SDS011;3924;48.830;9.262;2023-02-28T05:11:27;4.07;;;3.27;;
7759;SDS011;3924;48.830;9.262;2023-02-28T05:14:04;3.10;;;2.47;;
7759;SDS011;3924;48.830;9.262;2023-02-28T05:16:33;5.80;;;3.53;;
7759;SDS011;3924;48.830;9.262;2023-02-28T05:19:00;4.97;;;3.43;;
7759;SDS011;3924;48.830;9.262;2023-02-28T05:21:39;6.57;;;3.43;;
7759;SDS011;3924;48.830;9.262;2023-02-28T05:24:09;5.40;;;3.60;;
7759;SDS011;3924;48.830;9.262;2023-02-28T05:26:38;3.13;;;2.70;;
7759;SDS011;3924;48.830;9.262;2023-02-28T05:29:06;4.63;;;3.40;;
7759;SDS011;3924;48.830;9.262;2023-02-28T05:31:33;5.37;;;4.03;;
7759;SDS011;3924;48.830;9.262;2023-02-28T05:34:00;5.30;;;3.57;;
7759;SDS011;3924;48.830;9.262;2023-02-28T05:36:27;4.43;;;3.30;;
7759;SDS011;3924;48.830;9.262;2023-02-28T05:38:53;3.23;;;2.83;;
7759;SDS011;3924;48.830;9.262;2023-02-28T05:41:20;3.80;;;3.43;;
7759;SDS011;3924;48.830;9.262;2023-02-28T05:43:46;3.43;;;3.10;;
7759;SDS011;3924;48.830;9.262;2023-02-28T05:46:14;5.03;;;3.33;;
7759;SDS011;3924;48.830;9.262;2023-02-28T05:48:41;4.67;;;3.47;;
7759;SDS011;3924;48.830;9.262;2023-02-28T05:51:09;3.73;;;3.13;;
7759;SDS011;3924;48.830;9.262;2023-02-28T05:53:35;3.57;;;3.27;;
7759;SDS011;3924;48.830;9.262;2023-02-28T05:56:02;5.23;;;3.50;;
7759;SDS011;3924;48.830;9.262;2023-02-28T05:58:29;3.60;;;3.30;;
7759;SDS011;3924;48.830;9.262;2023-02-28T06:00:57;7.07;;;3.70;;
7759;SDS011;3924;48.830;9.262;2023-02-28T06:03:25;5.03;;;3.87;;
7759;SDS011;3924;48.830;9.262;2023-02-28T06:05:52;3.70;;;3.33;;
7759;SDS011;3924;48.830;9.262;2023-02-28T06:08:19;4.30;;;3.20;;
7759;SDS011;3924;48.830;9.262;2023-02-28T06:10:45;4.37;;;3.87;;
7759;SDS011;3924;48.830;9.262;2023-02-28T06:13:12;5.93;;;4.30;;
7759;SDS011;3924;48.830;9.262;2023-02-28T06:15:39;5.27;;;3.43;;
7759;SDS011;3924;48.830;9.262;2023-02-28T06:18:05;3.03;;;2.77;;
7759;SDS011;3924;48.830;9.262;2023-02-28T06:20:32;3.93;;;3.40;;
7759;SDS011;3924;48.830;9.262;2023-02-28T06:22:59;6.37;;;3.70;;
7759;SDS011;3924;48.830;9.262;2023-02-28T06:25:26;5.20;;;3.97;;
7759;SDS011;3924;48.830;9.262;2023-02-28T06:27:54;5.03;;;3.67;;
7759;SDS011;3924;48.830;9.262;2023-02-28T06:30:20;5.03;;;3.60;;
7759;SDS011;3924;48.830;9.262;2023-02-28T06:32:53;6.37;;;3.53;;
7759;SDS011;3924;48.830;9.262;2023-02-28T06:35:20;4.83;;;4.07;;
7759;SDS011;3924;48.830;9.262;2023-02-28T06:37:47;5.83;;;3.87;;
7759;SDS011;3924;48.830;9.262;2023-02-28T06:40:14;4.97;;;3.87;;
7759;SDS011;3924;48.830;9.262;2023-02-28T06:42:41;5.00;;;3.60;;
7759;SDS011;3924;48.830;9.262;2023-02-28T06:45:07;4.80;;;3.70;;
7759;SDS011;3924;48.830;9.262;2023-02-28T06:47:36;7.17;;;4.10;;
7759;SDS011;3924;48.830;9.262;2023-02-28T06:50:04;4.00;;;3.60;;
7759;SDS011;3924;48.830;9.262;2023-02-28T06:52:31;8.20;;;3.53;;
7759;SDS011;3924;48.830;9.262;2023-02-28T06:54:58;6.43;;;3.53;;
7759;SDS011;3924;48.830;9.262;2023-02-28T06:57:27;4.50;;;4.10;;
7759;SDS011;3924;48.830;9.262;2023-02-28T06:59:57;3.60;;;3.23;;
7759;SDS011;3924;48.830;9.262;2023-02-28T07:02:25;5.93;;;3.77;;
7759;SDS011;3924;48.830;9.262;2023-02-28T07:04:52;8.90;;;4.37;;
7759;SDS011;3924;48.830;9.262;2023-02-28T07:07:19;4.87;;;3.53;;
7759;SDS011;3924;48.830;9.262;2023-02-28T07:09:45;4.87;;;3.90;;
7759;SDS011;3924;48.830;9.262;2023-02-28T07:12:12;7.30;;;4.07;;
7759;SDS011;3924;48.830;9.262;2023-02-28T07:14:38;8.27;;;4.17;;
7759;SDS011;3924;48.830;9.262;2023-02-28T07:17:06;4.90;;;3.93;;
7759;SDS011;3924;48.830;9.262;2023-02-28T07:19:33;4.30;;;3.83;;
7759;SDS011;3924;48.830;9.262;2023-02-28T07:22:00;6.10;;;3.40;;
7759;SDS011;3924;48.830;9.262;2023-02-28T07:24:28;7.50;;;4.50;;
7759;SDS011;3924;48.830;9.262;2023-02-28T07:26:55;7.63;;;4.60;;
7759;SDS011;3924;48.830;9.262;2023-02-28T07:29:22;3.77;;;3.47;;
7759;SDS011;3924;48.830;9.262;2023-02-28T07:31:49;10.50;;;4.43;;
7759;SDS011;3924;48.830;9.262;2023-02-28T07:34:19;7.27;;;4.20;;
7759;SDS011;3924;48.830;9.262;2023-02-28T07:36:46;4.77;;;3.97;;
7759;SDS011;3924;48.830;9.262;2023-02-28T07:39:13;7.77;;;4.40;;
7759;SDS011;3924;48.830;9.262;2023-02-28T07:41:39;6.23;;;4.47;;
7759;SDS011;3924;48.830;9.262;2023-02-28T07:44:10;8.27;;;4.07;;
7759;SDS011;3924;48.830;9.262;2023-02-28T07:46:37;5.03;;;4.33;;
7759;SDS011;3924;48.830;9.262;2023-02-28T07:49:04;5.70;;;4.00;;
7759;SDS011;3924;48.830;9.262;2023-02-28T07:51:31;9.90;;;4.60;;
7759;SDS011;3924;48.830;9.262;2023-02-28T07:53:58;4.50;;;3.83;;
7759;SDS011;3924;48.830;9.262;2023-02-28T07:56:24;9.87;;;4.83;;
7759;SDS011;3924;48.830;9.262;2023-02-28T07:58:51;4.70;;;4.20;;
7759;SDS011;3924;48.830;9.262;2023-02-28T08:01:17;14.17;;;3.83;;
7759;SDS011;3924;48.830;9.262;2023-02-28T08:03:45;7.20;;;4.00;;
7759;SDS011;3924;48.830;9.262;2023-02-28T08:06:18;5.17;;;4.13;;
7759;SDS011;3924;48.830;9.262;2023-02-28T08:08:47;5.70;;;4.23;;
7759;SDS011;3924;48.830;9.262;2023-02-28T08:11:14;5.53;;;4.43;;
7759;SDS011;3924;48.830;9.262;2023-02-28T08:13:42;5.23;;;4.20;;
7759;SDS011;3924;48.830;9.262;2023-02-28T08:16:10;7.67;;;4.60;;
7759;SDS011;3924;48.830;9.262;2023-02-28T08:18:40;11.27;;;5.00;;
7759;SDS011;3924;48.830;9.262;2023-02-28T08:21:07;6.13;;;3.80;;
7759;SDS011;3924;48.830;9.262;2023-02-28T08:23:35;8.90;;;4.67;;
7759;SDS011;3924;48.830;9.262;2023-02-28T08:26:02;5.40;;;4.33;;
7759;SDS011;3924;48.830;9.262;2023-02-28T08:28:29;5.77;;;4.30;;
7759;SDS011;3924;48.830;9.262;2023-02-28T08:30:56;7.53;;;4.87;;
7759;SDS011;3924;48.830;9.262;2023-02-28T08:33:23;4.57;;;4.17;;
7759;SDS011;3924;48.830;9.262;2023-02-28T08:35:54;5.50;;;4.40;;
7759;SDS011;3924;48.830;9.262;2023-02-28T08:38:22;5.07;;;4.30;;
7759;SDS011;3924;48.830;9.262;2023-02-28T08:40:49;5.93;;;4.23;;
7759;SDS011;3924;48.830;9.262;2023-02-28T08:43:16;5.67;;;4.57;;
7759;SDS011;3924;48.830;9.262;2023-02-28T08:45:42;6.93;;;4.83;;
7759;SDS011;3924;48.830;9.262;2023-02-28T08:48:09;5.80;;;4.10;;
7759;SDS011;3924;48.830;9.262;2023-02-28T08:50:36;7.73;;;4.50;;
7759;SDS011;3924;48.830;9.262;2023-02-28T08:53:02;4.83;;;4.30;;
7759;SDS011;3924;48.830;9.262;2023-02-28T08:55:29;6.97;;;4.93;;
7759;SDS011;3924;48.830;9.262;2023-02-28T08:57:55;6.60;;;4.53;;
7759;SDS011;3924;48.830;9.262;2023-02-28T09:00:23;7.00;;;5.10;;
7759;SDS011;3924;48.830;9.262;2023-02-28T09:02:49;6.67;;;4.97;;
7759;SDS011;3924;48.830;9.262;2023-02-28T09:05:16;6.30;;;4.70;;
7759;SDS011;3924;48.830;9.262;2023-02-28T09:07:42;11.10;;;5.63;;
7759;SDS011;3924;48.830;9.262;2023-02-28T09:10:09;8.13;;;5.60;;
7759;SDS011;3924;48.830;9.262;2023-02-28T09:12:36;7.63;;;4.23;;
7759;SDS011;3924;48.830;9.262;2023-02-28T09:15:02;10.20;;;5.47;;
7759;SDS011;3924;48.830;9.262;2023-02-28T09:17:29;4.70;;;4.23;;
7759;SDS011;3924;48.830;9.262;2023-02-28T09:19:56;8.00;;;4.50;;
7759;SDS011;3924;48.830;9.262;2023-02-28T09:22:23;5.10;;;4.47;;
7759;SDS011;3924;48.830;9.262;2023-02-28T09:24:50;6.27;;;5.13;;
7759;SDS011;3924;48.830;9.262;2023-02-28T09:27:17;7.97;;;5.30;;
7759;SDS011;3924;48.830;9.262;2023-02-28T09:29:43;7.47;;;5.53;;
7759;SDS011;3924;48.830;9.262;2023-02-28T09:32:10;8.13;;;5.00;;
7759;SDS011;3924;48.830;9.262;2023-02-28T09:34:36;7.23;;;5.23;;
7759;SDS011;3924;48.830;9.262;2023-02-28T09:37:03;8.67;;;5.00;;
7759;SDS011;3924;48.830;9.262;2023-02-28T09:39:30;8.10;;;5.67;;
7759;SDS011;3924;48.830;9.262;2023-02-28T09:41:57;8.60;;;5.93;;
7759;SDS011;3924;48.830;9.262;2023-02-28T09:44:43;5.40;;;4.07;;
7759;SDS011;3924;48.830;9.262;2023-02-28T09:53:10;7.47;;;5.60;;
7759;SDS011;3924;48.830;9.262;2023-02-28T09:55:47;9.10;;;5.50;;
7759;SDS011;3924;48.830;9.262;2023-02-28T09:58:22;9.50;;;5.97;;
7759;SDS011;3924;48.830;9.262;2023-02-28T10:00:56;6.13;;;5.53;;
7759;SDS011;3924;48.830;9.262;2023-02-28T10:03:30;5.30;;;4.77;;
7759;SDS011;3924;48.830;9.262;2023-02-28T10:06:06;9.03;;;5.40;;
7759;SDS011;3924;48.830;9.262;2023-02-28T10:08:36;8.57;;;5.43;;
7759;SDS011;3924;48.830;9.262;2023-02-28T10:11:09;8.00;;;5.93;;
7759;SDS011;3924;48.830;9.262;2023-02-28T10:16:08;7.10;;;5.40;;
7759;SDS011;3924;48.830;9.262;2023-02-28T10:18:44;5.77;;;5.03;;
7759;SDS011;3924;48.830;9.262;2023-02-28T10:21:41;6.00;;;4.93;;
7759;SDS011;3924;48.830;9.262;2023-02-28T10:27:13;6.20;;;4.60;;
7759;SDS011;3924;48.830;9.262;2023-02-28T10:29:58;7.07;;;5.50;;
7759;SDS011;3924;48.830;9.262;2023-02-28T10:32:34;6.10;;;4.57;;
7759;SDS011;3924;48.830;9.262;2023-02-28T10:35:18;8.70;;;6.03;;
7759;SDS011;3924;48.830;9.262;2023-02-28T10:37:48;5.10;;;4.33;;
7759;SDS011;3924;48.830;9.262;2023-02-28T10:42:58;6.73;;;5.47;;
7759;SDS011;3924;48.830;9.262;2023-02-28T10:45:26;7.27;;;5.80;;
7759;SDS011;3924;48.830;9.262;2023-02-28T10:50:27;5.97;;;5.10;;
7759;SDS011;3924;48.830;9.262;2023-02-28T10:52:57;7.07;;;5.43;;
7759;SDS011;3924;48.830;9.262;2023-02-28T10:55:35;9.67;;;5.60;;
7759;SDS011;3924;48.830;9.262;2023-02-28T10:58:02;7.33;;;5.90;;
7759;SDS011;3924;48.830;9.262;2023-02-28T11:00:32;6.37;;;5.20;;
7759;SDS011;3924;48.830;9.262;2023-02-28T11:03:01;7.13;;;5.53;;
7759;SDS011;3924;48.830;9.262;2023-02-28T11:05:29;7.73;;;5.70;;
7759;SDS011;3924;48.830;9.262;2023-02-28T11:08:10;7.67;;;5.77;;
7759;SDS011;3924;48.830;9.262;2023-02-28T11:10:43;10.57;;;6.20;;
7759;SDS011;3924;48.830;9.262;2023-02-28T11:13:19;6.83;;;5.77;;
7759;SDS011;3924;48.830;9.262;2023-02-28T11:15:53;7.67;;;5.53;;
7759;SDS011;3924;48.830;9.262;2023-02-28T11:18:27;7.53;;;4.97;;
7759;SDS011;3924;48.830;9.262;2023-02-28T11:20:57;8.87;;;5.90;;
7759;SDS011;3924;48.830;9.262;2023-02-28T11:23:28;7.17;;;5.30;;
7759;SDS011;3924;48.830;9.262;2023-02-28T11:25:58;5.67;;;5.17;;
7759;SDS011;3924;48.830;9.262;2023-02-28T11:33:52;6.23;;;4.97;;
7759;SDS011;3924;48.830;9.262;2023-02-28T11:36:23;7.27;;;5.63;;
7759;SDS011;3924;48.830;9.262;2023-02-28T11:38:52;6.47;;;5.00;;
7759;SDS011;3924;48.830;9.262;2023-02-28T11:55:07;6.37;;;5.23;;
7759;SDS011;3924;48.830;9.262;2023-02-28T11:57:59;6.23;;;4.57;;
7759;SDS011;3924;48.830;9.262;2023-02-28T12:01:14;7.03;;;5.43;;
7759;SDS011;3924;48.830;9.262;2023-02-28T12:03:49;6.10;;;4.87;;
7759;SDS011;3924;48.830;9.262;2023-02-28T12:06:32;8.07;;;5.23;;
7759;SDS011;3924;48.830;9.262;2023-02-28T12:09:32;6.07;;;4.90;;
7759;SDS011;3924;48.830;9.262;2023-02-28T12:18:28;6.87;;;4.87;;
7759;SDS011;3924;48.830;9.262;2023-02-28T12:21:22;5.30;;;4.70;;
7759;SDS011;3924;48.830;9.262;2023-02-28T12:26:52;8.33;;;5.80;;
7759;SDS011;3924;48.830;9.262;2023-02-28T12:29:23;5.40;;;5.00;;
7759;SDS011;3924;48.830;9.262;2023-02-28T12:37:44;9.40;;;5.13;;
7759;SDS011;3924;48.830;9.262;2023-02-28T12:40:16;7.03;;;5.30;;
7759;SDS011;3924;48.830;9.262;2023-02-28T12:42:50;7.70;;;5.40;;
7759;SDS011;3924;48.830;9.262;2023-02-28T12:45:23;7.20;;;5.30;;
7759;SDS011;3924;48.830;9.262;2023-02-28T12:48:04;7.63;;;5.77;;
7759;SDS011;3924;48.830;9.262;2023-02-28T12:50:34;6.63;;;5.13;;
7759;SDS011;3924;48.830;9.262;2023-02-28T12:53:15;8.03;;;5.27;;
7759;SDS011;3924;48.830;9.262;2023-02-28T12:55:54;6.47;;;5.70;;
7759;SDS011;3924;48.830;9.262;2023-02-28T12:58:45;5.30;;;4.57;;
7759;SDS011;3924;48.830;9.262;2023-02-28T13:09:57;7.30;;;4.90;;
7759;SDS011;3924;48.830;9.262;2023-02-28T13:12:26;5.17;;;4.50;;
7759;SDS011;3924;48.830;9.262;2023-02-28T13:15:08;6.60;;;5.43;;
7759;SDS011;3924;48.830;9.262;2023-02-28T13:17:39;6.60;;;5.33;;
7759;SDS011;3924;48.830;9.262;2023-02-28T13:20:46;7.47;;;5.30;;
7759;SDS011;3924;48.830;9.262;2023-02-28T13:23:02;5.63;;;4.37;;
7759;SDS011;3924;48.830;9.262;2023-02-28T13:28:01;5.87;;;4.53;;
7759;SDS011;3924;48.830;9.262;2023-02-28T13:38:45;6.53;;;5.43;;
7759;SDS011;3924;48.830;9.262;2023-02-28T13:46:27;6.50;;;5.10;;
7759;SDS011;3924;48.830;9.262;2023-02-28T13:48:54;5.87;;;4.10;;
7759;SDS011;3924;48.830;9.262;2023-02-28T13:54:20;5.10;;;4.20;;
7759;SDS011;3924;48.830;9.262;2023-02-28T13:57:03;5.87;;;4.50;;
7759;SDS011;3924;48.830;9.262;2023-02-28T13:59:54;5.50;;;4.90;;
7759;SDS011;3924;48.830;9.262;2023-02-28T14:05:32;8.83;;;5.30;;
7759;SDS011;3924;48.830;9.262;2023-02-28T14:08:04;7.17;;;4.63;;
7759;SDS011;3924;48.830;9.262;2023-02-28T14:16:14;5.33;;;4.40;;
7759;SDS011;3924;48.830;9.262;2023-02-28T14:18:57;9.73;;;5.20;;
7759;SDS011;3924;48.830;9.262;2023-02-28T14:21:27;6.53;;;5.00;;
7759;SDS011;3924;48.830;9.262;2023-02-28T14:32:05;5.33;;;4.83;;
7759;SDS011;3924;48.830;9.262;2023-02-28T14:34:55;7.67;;;4.73;;
7759;SDS011;3924;48.830;9.262;2023-02-28T14:37:37;5.47;;;4.77;;
7759;SDS011;3924;48.830;9.262;2023-02-28T14:40:12;6.93;;;4.67;;
7759;SDS011;3924;48.830;9.262;2023-02-28T14:42:46;5.73;;;4.70;;
7759;SDS011;3924;48.830;9.262;2023-02-28T14:45:21;7.90;;;5.00;;
7759;SDS011;3924;48.830;9.262;2023-02-28T14:47:49;7.17;;;4.83;;
7759;SDS011;3924;48.830;9.262;2023-02-28T14:50:21;6.00;;;5.07;;
7759;SDS011;3924;48.830;9.262;2023-02-28T14:52:53;6.93;;;4.90;;
7759;SDS011;3924;48.830;9.262;2023-02-28T14:55:26;5.90;;;4.97;;
7759;SDS011;3924;48.830;9.262;2023-02-28T14:57:57;4.73;;;4.30;;
7759;SDS011;3924;48.830;9.262;2023-02-28T15:00:26;7.67;;;4.63;;
7759;SDS011;3924;48.830;9.262;2023-02-28T15:02:58;5.80;;;5.17;;
7759;SDS011;3924;48.830;9.262;2023-02-28T15:05:27;7.80;;;5.27;;
7759;SDS011;3924;48.830;9.262;2023-02-28T15:08:04;6.90;;;5.20;;
7759;SDS011;3924;48.830;9.262;2023-02-28T15:10:44;5.97;;;4.67;;
7759;SDS011;3924;48.830;9.262;2023-02-28T15:19:14;6.60;;;5.40;;
7759;SDS011;3924;48.830;9.262;2023-02-28T15:21:48;5.77;;;4.70;;
7759;SDS011;3924;48.830;9.262;2023-02-28T15:24:20;7.43;;;6.60;;
7759;SDS011;3924;48.830;9.262;2023-02-28T15:26:58;7.77;;;5.63;;
7759;SDS011;3924;48.830;9.262;2023-02-28T15:29:29;11.40;;;6.77;;
7759;SDS011;3924;48.830;9.262;2023-02-28T15:32:04;11.63;;;6.87;;
7759;SDS011;3924;48.830;9.262;2023-02-28T15:37:29;9.47;;;6.87;;
7759;SDS011;3924;48.830;9.262;2023-02-28T15:40:45;9.13;;;5.37;;
7759;SDS011;3924;48.830;9.262;2023-02-28T15:43:13;7.33;;;5.70;;
7759;SDS011;3924;48.830;9.262;2023-02-28T15:46:03;7.73;;;4.77;;
7759;SDS011;3924;48.830;9.262;2023-02-28T15:48:49;6.30;;;5.00;;
7759;SDS011;3924;48.830;9.262;2023-02-28T15:51:19;6.63;;;5.23;;
7759;SDS011;3924;48.830;9.262;2023-02-28T15:53:50;6.53;;;4.90;;
7759;SDS011;3924;48.830;9.262;2023-02-28T15:56:23;7.30;;;5.50;;
7759;SDS011;3924;48.830;9.262;2023-02-28T15:58:55;7.37;;;5.77;;
7759;SDS011;3924;48.830;9.262;2023-02-28T16:01:24;5.70;;;5.20;;
7759;SDS011;3924;48.830;9.262;2023-02-28T16:04:03;6.33;;;5.10;;
7759;SDS011;3924;48.830;9.262;2023-02-28T16:07:17;14.33;;;9.57;;
7759;SDS011;3924;48.830;9.262;2023-02-28T16:09:24;6.03;;;5.40;;
7759;SDS011;3924;48.830;9.262;2023-02-28T16:11:51;6.00;;;5.50;;
7759;SDS011;3924;48.830;9.262;2023-02-28T16:14:22;9.17;;;5.07;;
7759;SDS011;3924;48.830;9.262;2023-02-28T16:16:51;12.17;;;5.20;;
7759;SDS011;3924;48.830;9.262;2023-02-28T16:19:20;8.37;;;5.93;;
7759;SDS011;3924;48.830;9.262;2023-02-28T16:21:46;7.23;;;5.80;;
7759;SDS011;3924;48.830;9.262;2023-02-28T16:24:13;6.53;;;5.47;;
7759;SDS011;3924;48.830;9.262;2023-02-28T16:26:40;8.80;;;6.20;;
7759;SDS011;3924;48.830;9.262;2023-02-28T16:29:13;10.90;;;6.37;;
7759;SDS011;3924;48.830;9.262;2023-02-28T16:31:49;6.83;;;5.33;;
7759;SDS011;3924;48.830;9.262;2023-02-28T16:34:15;6.73;;;5.37;;
7759;SDS011;3924;48.830;9.262;2023-02-28T16:36:42;6.53;;;5.87;;
7759;SDS011;3924;48.830;9.262;2023-02-28T16:39:13;9.57;;;6.00;;
7759;SDS011;3924;48.830;9.262;2023-02-28T16:41:43;8.23;;;6.57;;
7759;SDS011;3924;48.830;9.262;2023-02-28T16:44:17;7.43;;;6.20;;
7759;SDS011;3924;48.830;9.262;2023-02-28T16:46:52;10.53;;;6.50;;
7759;SDS011;3924;48.830;9.262;2023-02-28T16:49:19;11.93;;;6.60;;
7759;SDS011;3924;48.830;9.262;2023-02-28T16:51:46;6.30;;;5.57;;
7759;SDS011;3924;48.830;9.262;2023-02-28T16:54:12;10.23;;;6.03;;
7759;SDS011;3924;48.830;9.262;2023-02-28T16:56:40;6.10;;;5.40;;
7759;SDS011;3924;48.830;9.262;2023-02-28T16:59:12;8.77;;;6.33;;
7759;SDS011;3924;48.830;9.262;2023-02-28T17:01:47;8.87;;;5.97;;
7759;SDS011;3924;48.830;9.262;2023-02-28T17:04:16;11.07;;;6.10;;
7759;SDS011;3924;48.830;9.262;2023-02-28T17:06:43;6.33;;;5.70;;
7759;SDS011;3924;48.830;9.262;2023-02-28T17:09:14;7.30;;;5.67;;
7759;SDS011;3924;48.830;9.262;2023-02-28T17:11:43;7.63;;;6.00;;
7759;SDS011;3924;48.830;9.262;2023-02-28T17:14:10;9.10;;;6.20;;
7759;SDS011;3924;48.830;9.262;2023-02-28T17:16:38;8.20;;;5.90;;
7759;SDS011;3924;48.830;9.262;2023-02-28T17:19:06;8.83;;;6.27;;
7759;SDS011;3924;48.830;9.262;2023-02-28T17:21:37;7.63;;;6.37;;
7759;SDS011;3924;48.830;9.262;2023-02-28T17:24:03;8.60;;;6.27;;
7759;SDS011;3924;48.830;9.262;2023-02-28T17:26:31;10.60;;;7.43;;
7759;SDS011;3924;48.830;9.262;2023-02-28T17:28:58;9.63;;;6.97;;
7759;SDS011;3924;48.830;9.262;2023-02-28T17:31:25;9.33;;;7.13;;
7759;SDS011;3924;48.830;9.262;2023-02-28T17:33:53;7.80;;;6.70;;
7759;SDS011;3924;48.830;9.262;2023-02-28T17:36:23;9.47;;;6.97;;
7759;SDS011;3924;48.830;9.262;2023-02-28T17:38:52;10.13;;;7.50;;
7759;SDS011;3924;48.830;9.262;2023-02-28T17:41:21;13.53;;;7.27;;
7759;SDS011;3924;48.830;9.262;2023-02-28T17:43:48;13.27;;;8.17;;
7759;SDS011;3924;48.830;9.262;2023-02-28T17:46:17;10.43;;;7.37;;